Wetterdaten: Woche 18.01.21 - 24.01.21 (KW3)
Datum Zeit Temp. A. Feuchte A. Luftdruck Regen Wind Richtung Taupunkt Windchill Windben
18.01.2021 00:00 -2,3 C 63 % 1022,8 hPa 0,0 l/m 4,5 km/h N -8,4 C -2,3 C 12,5 km/h
18.01.2021 01:00 -2,5 C 64 % 1022,8 hPa 0,0 l/m 1,4 km/h N -8,4 C -2,5 C 7,6 km/h
18.01.2021 02:00 -2,5 C 66 % 1022,8 hPa 0,0 l/m 0,6 km/h N -8,0 C -2,5 C 4,8 km/h
18.01.2021 03:00 -2,6 C 68 % 1022,6 hPa 0,0 l/m 0,0 km/h N -7,8 C -2,6 C 0,8 km/h
18.01.2021 04:00 -2,6 C 70 % 1022,4 hPa 0,0 l/m 0,4 km/h N -7,4 C -2,6 C 5,2 km/h
18.01.2021 05:00 -2,6 C 70 % 1022,1 hPa 0,0 l/m 0,2 km/h N -7,3 C -2,6 C 1,2 km/h
18.01.2021 06:00 -2,5 C 72 % 1022,1 hPa 0,0 l/m 0,1 km/h N -6,8 C -2,5 C 2,8 km/h
18.01.2021 07:00 -2,5 C 72 % 1022,2 hPa 0,0 l/m 0,0 km/h N -6,9 C -2,5 C 0,0 km/h
18.01.2021 08:00 -2,4 C 73 % 1022,4 hPa 0,0 l/m 0,0 km/h N -6,6 C -2,4 C 0,0 km/h
18.01.2021 09:00 -2,3 C 74 % 1022,6 hPa 0,0 l/m 0,0 km/h N -6,3 C -2,3 C 0,8 km/h
18.01.2021 10:00 -2,3 C 76 % 1022,9 hPa 0,0 l/m 0,1 km/h N -6,1 C -2,3 C 3,6 km/h
18.01.2021 11:00 -2,4 C 80 % 1022,8 hPa 0,0 l/m 0,0 km/h N -5,4 C -2,4 C 1,6 km/h
18.01.2021 12:00 -2,3 C 81 % 1022,8 hPa 0,0 l/m 0,0 km/h N -5,2 C -2,3 C 0,4 km/h
18.01.2021 13:00 -2,3 C 82 % 1022,5 hPa 0,0 l/m 0,0 km/h N -4,9 C -2,3 C 0,0 km/h
18.01.2021 14:00 -2,0 C 82 % 1022,4 hPa 0,0 l/m 0,0 km/h N -4,7 C -2,0 C 0,0 km/h
18.01.2021 15:00 -2,1 C 83 % 1022,6 hPa 0,0 l/m 0,0 km/h N -4,6 C -2,1 C 0,0 km/h
18.01.2021 16:00 -2,3 C 83 % 1022,4 hPa 0,0 l/m 0,0 km/h N -4,8 C -2,3 C 0,0 km/h
18.01.2021 17:00 -2,7 C 83 % 1022,4 hPa 0,0 l/m 0,0 km/h N -5,2 C -2,7 C 0,0 km/h
18.01.2021 18:00 -2,4 C 83 % 1022,4 hPa 0,0 l/m 0,5 km/h N -4,9 C -2,4 C 8,0 km/h
18.01.2021 19:00 2,2 C 82 % 1022,0 hPa 0,0 l/m 7,4 km/h N -0,5 C 0,9 C 20,5 km/h
18.01.2021 20:00 2,9 C 78 % 1022,1 hPa 0,0 l/m 7,2 km/h N -0,6 C 2,2 C 24,1 km/h
18.01.2021 21:00 3,1 C 76 % 1022,2 hPa 0,0 l/m 5,1 km/h N -0,7 C 3,1 C 22,1 km/h
18.01.2021 22:00 3,1 C 76 % 1022,2 hPa 0,5 l/m 6,3 km/h N -0,7 C 2,9 C 22,1 km/h
18.01.2021 23:00 3,2 C 75 % 1022,2 hPa 0,5 l/m 5,3 km/h N -0,8 C 3,2 C 24,1 km/h
19.01.2021 00:00 3,4 C 73 % 1022,0 hPa 0,3 l/m 6,5 km/h N -1,0 C 2,8 C 25,3 km/h
19.01.2021 01:00 3,2 C 74 % 1021,8 hPa 0,3 l/m 5,7 km/h N -1,0 C 3,0 C 25,4 km/h
19.01.2021 02:00 3,2 C 72 % 1021,4 hPa 0,3 l/m 5,8 km/h N -1,4 C 3,0 C 24,1 km/h
19.01.2021 03:00 3,0 C 73 % 1021,3 hPa 0,0 l/m 4,2 km/h N -1,4 C 3,0 C 21,3 km/h
19.01.2021 04:00 2,9 C 72 % 1020,8 hPa 0,0 l/m 6,0 km/h N -1,7 C 2,6 C 25,8 km/h
19.01.2021 05:00 3,1 C 71 % 1020,5 hPa 0,3 l/m 8,5 km/h N -1,7 C 1,2 C 24,9 km/h
19.01.2021 06:00 3,1 C 68 % 1020,5 hPa 0,0 l/m 9,0 km/h N -2,2 C 0,8 C 25,0 km/h
19.01.2021 07:00 3,2 C 66 % 1020,4 hPa 0,0 l/m 7,3 km/h N -2,5 C 2,0 C 24,5 km/h
19.01.2021 08:00 3,2 C 66 % 1020,3 hPa 0,0 l/m 0,5 km/h N -2,5 C 3,2 C 6,4 km/h
19.01.2021 09:00 3,6 C 65 % 1020,4 hPa 0,0 l/m 0,1 km/h N -2,3 C 3,6 C 2,0 km/h
19.01.2021 10:00 4,4 C 63 % 1020,2 hPa 0,0 l/m 0,3 km/h N -2,0 C 4,4 C 4,8 km/h
19.01.2021 11:00 5,3 C 59 % 1019,2 hPa 0,0 l/m 0,3 km/h N -2,0 C 5,3 C 3,2 km/h
19.01.2021 12:00 6,1 C 58 % 1018,0 hPa 0,0 l/m 0,0 km/h N -1,6 C 6,1 C 0,4 km/h
19.01.2021 13:00 6,6 C 56 % 1016,8 hPa 0,0 l/m 0,0 km/h N -1,6 C 6,6 C 0,0 km/h
19.01.2021 14:00 6,3 C 55 % 1015,8 hPa 0,0 l/m 0,0 km/h N -2,0 C 6,3 C 0,0 km/h
19.01.2021 15:00 5,9 C 57 % 1015,3 hPa 0,0 l/m 0,0 km/h N -2,1 C 5,9 C 0,0 km/h
19.01.2021 16:00 5,3 C 58 % 1014,6 hPa 0,0 l/m 0,0 km/h N -2,4 C 5,3 C 0,0 km/h
19.01.2021 17:00 4,3 C 61 % 1014,1 hPa 0,0 l/m 0,0 km/h N -2,6 C 4,3 C 0,0 km/h
19.01.2021 18:00 4,0 C 63 % 1013,3 hPa 0,0 l/m 0,0 km/h N -2,3 C 4,0 C 0,0 km/h
19.01.2021 19:00 5,5 C 60 % 1013,0 hPa 0,0 l/m 1,4 km/h N -1,8 C 5,5 C 11,3 km/h
19.01.2021 20:00 6,9 C 67 % 1013,2 hPa 0,0 l/m 1,9 km/h N 1,2 C 6,9 C 16,9 km/h
19.01.2021 21:00 5,7 C 78 % 1013,2 hPa 0,3 l/m 4,7 km/h N 2,1 C 5,4 C 22,5 km/h
19.01.2021 22:00 5,6 C 79 % 1012,9 hPa 0,3 l/m 6,5 km/h N 2,3 C 5,4 C 33,0 km/h
19.01.2021 23:00 6,1 C 78 % 1012,7 hPa 0,0 l/m 6,8 km/h N 2,5 C 5,5 C 25,8 km/h
20.01.2021 00:00 6,5 C 78 % 1012,7 hPa 0,0 l/m 6,0 km/h N 2,8 C 6,4 C 28,6 km/h
20.01.2021 01:00 6,7 C 79 % 1012,6 hPa 0,0 l/m 7,7 km/h N 3,4 C 5,2 C 26,5 km/h
20.01.2021 02:00 6,7 C 81 % 1012,9 hPa 1,0 l/m 8,1 km/h N 3,6 C 5,3 C 24,1 km/h
20.01.2021 03:00 7,0 C 81 % 1013,0 hPa 0,5 l/m 4,2 km/h N 4,0 C 6,7 C 18,5 km/h
20.01.2021 04:00 7,2 C 81 % 1012,8 hPa 0,0 l/m 0,5 km/h N 4,1 C 7,2 C 5,2 km/h
20.01.2021 05:00 6,6 C 79 % 1012,9 hPa 0,0 l/m 0,0 km/h N 3,2 C 6,6 C 0,0 km/h
20.01.2021 06:00 4,0 C 80 % 1013,2 hPa 0,0 l/m 0,0 km/h N 0,8 C 4,0 C 0,0 km/h
20.01.2021 07:00 2,5 C 82 % 1013,5 hPa 0,3 l/m 0,0 km/h N -0,2 C 2,5 C 0,0 km/h
20.01.2021 08:00 1,2 C 83 % 1014,1 hPa 0,0 l/m 0,0 km/h N -1,4 C 1,2 C 0,0 km/h
20.01.2021 09:00 2,7 C 82 % 1014,1 hPa 0,0 l/m 0,0 km/h N -0,0 C 2,7 C 0,0 km/h
20.01.2021 10:00 5,1 C 82 % 1014,0 hPa 0,0 l/m 0,0 km/h N 2,2 C 5,1 C 0,0 km/h
20.01.2021 11:00 6,1 C 82 % 1013,4 hPa 0,0 l/m 0,0 km/h N 3,3 C 6,1 C 0,0 km/h
20.01.2021 12:00 7,3 C 82 % 1012,7 hPa 0,0 l/m 0,0 km/h N 4,5 C 7,3 C 0,0 km/h
20.01.2021 13:00 8,3 C 80 % 1012,0 hPa 0,0 l/m 0,0 km/h N 5,1 C 8,3 C 0,0 km/h
20.01.2021 14:00 8,4 C 78 % 1011,6 hPa 0,0 l/m 0,0 km/h N 4,7 C 8,4 C 0,0 km/h
20.01.2021 15:00 9,1 C 73 % 1011,0 hPa 0,0 l/m 0,0 km/h N 4,5 C 9,1 C 0,0 km/h
20.01.2021 16:00 7,8 C 70 % 1010,7 hPa 0,0 l/m 0,0 km/h N 2,6 C 7,8 C 0,0 km/h
20.01.2021 17:00 5,0 C 73 % 1010,6 hPa 0,0 l/m 0,0 km/h N 0,5 C 5,0 C 0,0 km/h
20.01.2021 18:00 2,6 C 76 % 1010,4 hPa 0,0 l/m 0,0 km/h N -1,2 C 2,6 C 0,0 km/h
20.01.2021 19:00 1,2 C 80 % 1010,3 hPa 0,0 l/m 0,0 km/h N -1,9 C 1,2 C 0,0 km/h
20.01.2021 20:00 0,4 C 82 % 1009,7 hPa 0,0 l/m 0,0 km/h N -2,3 C 0,4 C 0,0 km/h
20.01.2021 21:00 -0,1 C 83 % 1009,2 hPa 0,0 l/m 0,0 km/h N -2,6 C -0,1 C 0,0 km/h
20.01.2021 22:00 -0,9 C 83 % 1008,9 hPa 0,0 l/m 0,0 km/h N -3,4 C -0,9 C 0,0 km/h
20.01.2021 23:00 -1,5 C 83 % 1008,4 hPa 0,0 l/m 0,0 km/h N -4,0 C -1,5 C 0,0 km/h
21.01.2021 00:00 -2,0 C 83 % 1007,8 hPa 0,0 l/m 0,0 km/h N -4,5 C -2,0 C 0,0 km/h
21.01.2021 01:00 -2,3 C 83 % 1007,2 hPa 0,0 l/m 0,0 km/h N -4,8 C -2,3 C 0,0 km/h
21.01.2021 02:00 -2,4 C 83 % 1006,7 hPa 0,0 l/m 0,0 km/h N -4,9 C -2,4 C 0,0 km/h
21.01.2021 03:00 -2,5 C 84 % 1006,7 hPa 0,0 l/m 0,0 km/h N -4,8 C -2,5 C 0,0 km/h
21.01.2021 04:00 -2,2 C 84 % 1006,8 hPa 0,0 l/m 0,0 km/h N -4,6 C -2,2 C 0,0 km/h
21.01.2021 05:00 -2,3 C 82 % 1007,1 hPa 0,0 l/m 0,0 km/h N -5,0 C -2,3 C 0,0 km/h
21.01.2021 06:00 -2,9 C 82 % 1007,6 hPa 0,0 l/m 0,0 km/h N -5,5 C -2,9 C 0,0 km/h
21.01.2021 07:00 -3,5 C 82 % 1007,9 hPa 0,0 l/m 0,0 km/h N -6,1 C -3,5 C 0,0 km/h
21.01.2021 08:00 -3,8 C 82 % 1008,1 hPa 0,0 l/m 0,0 km/h N -6,4 C -3,8 C 0,0 km/h
21.01.2021 09:00 -2,5 C 82 % 1008,2 hPa 0,0 l/m 0,0 km/h N -5,1 C -2,5 C 0,0 km/h
21.01.2021 10:00 -0,5 C 82 % 1008,6 hPa 0,0 l/m 0,0 km/h N -3,2 C -0,5 C 0,0 km/h
21.01.2021 11:00 0,6 C 82 % 1008,5 hPa 0,0 l/m 0,0 km/h N -2,1 C 0,6 C 0,8 km/h
21.01.2021 12:00 1,8 C 82 % 1008,3 hPa 0,0 l/m 0,1 km/h N -1,0 C 1,8 C 2,0 km/h
21.01.2021 13:00 2,6 C 82 % 1008,1 hPa 0,0 l/m 0,0 km/h N -0,2 C 2,6 C 0,0 km/h
21.01.2021 14:00 3,2 C 82 % 1008,0 hPa 0,0 l/m 0,0 km/h N 0,4 C 3,2 C 0,0 km/h
21.01.2021 15:00 3,3 C 82 % 1008,1 hPa 0,0 l/m 0,0 km/h N 0,6 C 3,3 C 0,0 km/h
21.01.2021 16:00 2,1 C 82 % 1008,0 hPa 0,0 l/m 0,0 km/h N -0,7 C 2,1 C 0,0 km/h
21.01.2021 17:00 1,3 C 83 % 1008,0 hPa 0,0 l/m 0,0 km/h N -1,3 C 1,3 C 0,0 km/h
21.01.2021 18:00 0,9 C 83 % 1007,9 hPa 0,0 l/m 0,0 km/h N -1,7 C 0,9 C 0,0 km/h
21.01.2021 19:00 0,7 C 82 % 1007,8 hPa 0,0 l/m 0,0 km/h N -2,0 C 0,7 C 0,0 km/h
21.01.2021 20:00 0,6 C 82 % 1007,0 hPa 0,0 l/m 0,0 km/h N -2,1 C 0,6 C 0,0 km/h
21.01.2021 21:00 0,4 C 82 % 1006,1 hPa 0,0 l/m 0,0 km/h N -2,3 C 0,4 C 0,0 km/h
21.01.2021 22:00 0,4 C 82 % 1005,5 hPa 0,0 l/m 0,0 km/h N -2,4 C 0,4 C 0,0 km/h
21.01.2021 23:00 0,2 C 82 % 1004,8 hPa 0,0 l/m 0,1 km/h N -2,5 C 0,2 C 2,8 km/h
22.01.2021 00:00 -0,6 C 82 % 1004,0 hPa 0,0 l/m 0,0 km/h N -3,3 C -0,6 C 0,0 km/h
22.01.2021 01:00 -1,5 C 82 % 1003,0 hPa 0,0 l/m 0,0 km/h N -4,1 C -1,5 C 0,0 km/h
22.01.2021 02:00 -1,8 C 82 % 1002,0 hPa 0,0 l/m 0,0 km/h N -4,4 C -1,8 C 0,0 km/h
22.01.2021 03:00 -1,8 C 82 % 1001,2 hPa 0,0 l/m 0,0 km/h N -4,5 C -1,8 C 0,0 km/h
22.01.2021 04:00 -1,5 C 82 % 1000,8 hPa 0,0 l/m 0,0 km/h N -4,2 C -1,5 C 0,0 km/h
22.01.2021 05:00 -0,9 C 83 % 1000,5 hPa 0,0 l/m 0,0 km/h N -3,4 C -0,9 C 0,4 km/h
22.01.2021 06:00 -0,4 C 83 % 1000,4 hPa 0,0 l/m 0,0 km/h N -2,9 C -0,4 C 1,6 km/h
22.01.2021 07:00 0,3 C 83 % 1000,4 hPa 0,0 l/m 0,0 km/h N -2,2 C 0,3 C 0,0 km/h
22.01.2021 08:00 1,1 C 83 % 1000,4 hPa 0,3 l/m 0,1 km/h N -1,5 C 1,1 C 0,8 km/h
22.01.2021 09:00 2,3 C 83 % 1000,2 hPa 0,0 l/m 0,0 km/h N -0,3 C 2,3 C 0,8 km/h
22.01.2021 10:00 3,0 C 83 % 1000,4 hPa 0,0 l/m 0,1 km/h N 0,4 C 3,0 C 1,6 km/h
22.01.2021 11:00 4,7 C 84 % 1000,2 hPa 0,0 l/m 0,0 km/h N 2,2 C 4,7 C 0,0 km/h
22.01.2021 12:00 7,0 C 84 % 999,5 hPa 0,0 l/m 0,2 km/h N 4,4 C 7,0 C 1,6 km/h
22.01.2021 13:00 9,5 C 82 % 998,7 hPa 0,0 l/m 0,1 km/h N 6,5 C 9,5 C 1,2 km/h
22.01.2021 14:00 13,5 C 65 % 998,3 hPa 0,0 l/m 0,6 km/h N 7,1 C 13,5 C 9,3 km/h
22.01.2021 15:00 14,5 C 60 % 998,0 hPa 0,0 l/m 0,0 km/h N 6,7 C 14,5 C 1,2 km/h
22.01.2021 16:00 12,3 C 64 % 998,1 hPa 0,0 l/m 0,0 km/h N 5,7 C 12,3 C 1,6 km/h
22.01.2021 17:00 9,0 C 70 % 998,3 hPa 0,0 l/m 0,0 km/h N 3,8 C 9,0 C 0,0 km/h
22.01.2021 18:00 8,4 C 78 % 998,1 hPa 0,0 l/m 0,2 km/h N 4,9 C 8,4 C 4,8 km/h
22.01.2021 19:00 9,2 C 78 % 997,7 hPa 0,0 l/m 0,3 km/h N 5,6 C 9,2 C 2,4 km/h
22.01.2021 20:00 9,2 C 78 % 997,1 hPa 0,0 l/m 0,1 km/h N 5,6 C 9,2 C 2,4 km/h
22.01.2021 21:00 9,3 C 79 % 996,6 hPa 0,0 l/m 0,1 km/h N 5,8 C 9,3 C 1,6 km/h
22.01.2021 22:00 9,7 C 80 % 996,1 hPa 0,0 l/m 0,1 km/h N 6,3 C 9,7 C 1,6 km/h
22.01.2021 23:00 10,0 C 79 % 995,5 hPa 0,0 l/m 0,0 km/h N 6,5 C 10,0 C 1,6 km/h
23.01.2021 00:00 10,5 C 77 % 995,0 hPa 0,0 l/m 1,7 km/h N 6,5 C 10,5 C 12,1 km/h
23.01.2021 01:00 10,3 C 77 % 994,3 hPa 0,0 l/m 0,3 km/h N 6,4 C 10,3 C 8,4 km/h
23.01.2021 02:00 9,9 C 79 % 993,7 hPa 0,0 l/m 0,2 km/h N 6,3 C 9,9 C 4,0 km/h
23.01.2021 03:00 9,6 C 79 % 993,6 hPa 0,0 l/m 0,9 km/h N 6,1 C 9,6 C 7,3 km/h
23.01.2021 04:00 9,4 C 79 % 993,6 hPa 0,0 l/m 0,2 km/h N 5,9 C 9,4 C 2,8 km/h
23.01.2021 05:00 9,3 C 80 % 993,3 hPa 0,0 l/m 0,0 km/h N 6,0 C 9,3 C 0,4 km/h
23.01.2021 06:00 9,1 C 80 % 993,1 hPa 0,0 l/m 0,0 km/h N 5,7 C 9,1 C 0,0 km/h
23.01.2021 07:00 8,3 C 80 % 993,7 hPa 0,0 l/m 0,0 km/h N 5,1 C 8,3 C 0,4 km/h
23.01.2021 08:00 8,5 C 77 % 995,2 hPa 0,0 l/m 2,7 km/h N 4,7 C 8,5 C 16,5 km/h
23.01.2021 09:00 7,9 C 68 % 996,6 hPa 0,0 l/m 4,1 km/h N 2,3 C 7,9 C 16,1 km/h
23.01.2021 10:00 6,3 C 69 % 997,8 hPa 0,0 l/m 6,0 km/h N 1,1 C 6,2 C 28,1 km/h
23.01.2021 11:00 6,1 C 66 % 998,0 hPa 0,0 l/m 5,2 km/h N 0,3 C 6,1 C 24,6 km/h
23.01.2021 12:00 6,1 C 66 % 997,8 hPa 0,0 l/m 4,1 km/h N 0,2 C 6,1 C 26,1 km/h
23.01.2021 13:00 6,3 C 63 % 997,3 hPa 0,0 l/m 4,5 km/h N -0,2 C 6,3 C 21,3 km/h
23.01.2021 14:00 6,4 C 62 % 997,8 hPa 0,0 l/m 5,3 km/h N -0,4 C 6,4 C 18,5 km/h
23.01.2021 15:00 6,2 C 62 % 997,6 hPa 0,0 l/m 7,2 km/h N -0,6 C 5,3 C 21,7 km/h
23.01.2021 16:00 5,6 C 65 % 997,7 hPa 0,0 l/m 3,7 km/h N -0,4 C 5,6 C 19,7 km/h
23.01.2021 17:00 5,0 C 68 % 998,0 hPa 0,0 l/m 1,1 km/h N -0,4 C 5,0 C 10,9 km/h
23.01.2021 18:00 4,5 C 73 % 998,1 hPa 0,0 l/m 3,0 km/h N -0,0 C 4,5 C 12,5 km/h
23.01.2021 19:00 4,1 C 76 % 997,8 hPa 0,0 l/m 0,8 km/h N 0,2 C 4,1 C 6,4 km/h
23.01.2021 20:00 3,9 C 77 % 997,6 hPa 0,0 l/m 0,1 km/h N 0,2 C 3,9 C 2,0 km/h
23.01.2021 21:00 3,8 C 76 % 997,4 hPa 0,0 l/m 0,0 km/h N 0,0 C 3,8 C 1,6 km/h
23.01.2021 22:00 3,5 C 78 % 997,1 hPa 0,0 l/m 0,0 km/h N -0,0 C 3,5 C 1,6 km/h
23.01.2021 23:00 3,2 C 79 % 996,9 hPa 0,0 l/m 0,0 km/h N -0,1 C 3,2 C 0,0 km/h
24.01.2021 00:00 3,0 C 80 % 996,4 hPa 0,0 l/m 0,0 km/h N -0,1 C 3,0 C 0,4 km/h
24.01.2021 01:00 2,6 C 81 % 996,0 hPa 0,3 l/m 0,0 km/h N -0,3 C 2,6 C 0,0 km/h
24.01.2021 02:00 2,2 C 82 % 995,7 hPa 0,3 l/m 0,0 km/h N -0,6 C 2,2 C 0,0 km/h
24.01.2021 03:00 1,9 C 82 % 995,3 hPa 0,0 l/m 0,0 km/h N -0,9 C 1,9 C 0,0 km/h
24.01.2021 04:00 1,4 C 82 % 995,7 hPa 0,0 l/m 0,0 km/h N -1,4 C 1,4 C 0,0 km/h
24.01.2021 05:00 0,6 C 82 % 995,5 hPa 0,0 l/m 0,0 km/h N -2,1 C 0,6 C 0,0 km/h
24.01.2021 06:00 0,0 C 82 % 996,0 hPa 0,0 l/m 0,0 km/h N -2,7 C 0,0 C 0,0 km/h
24.01.2021 07:00 -0,2 C 82 % 996,8 hPa 0,0 l/m 0,0 km/h N -2,8 C -0,2 C 0,0 km/h
24.01.2021 08:00 -0,5 C 82 % 997,7 hPa 0,0 l/m 0,0 km/h N -3,2 C -0,5 C 0,0 km/h
24.01.2021 09:00 0,4 C 82 % 998,3 hPa 0,0 l/m 0,0 km/h N -2,3 C 0,4 C 0,0 km/h
24.01.2021 10:00 2,2 C 82 % 998,9 hPa 0,0 l/m 1,4 km/h N -0,5 C 2,2 C 11,3 km/h
24.01.2021 11:00 4,5 C 74 % 998,6 hPa 0,3 l/m 6,6 km/h N 0,3 C 4,2 C 30,6 km/h
24.01.2021 12:00 4,8 C 65 % 998,9 hPa 0,0 l/m 9,4 km/h N -1,2 C 2,4 C 29,4 km/h
24.01.2021 13:00 4,8 C 60 % 999,1 hPa 0,0 l/m 10,4 km/h N -2,4 C 1,6 C 28,2 km/h
24.01.2021 14:00 4,6 C 62 % 998,8 hPa 0,0 l/m 10,3 km/h N -2,2 C 1,5 C 26,6 km/h
24.01.2021 15:00 4,4 C 63 % 999,5 hPa 0,0 l/m 4,3 km/h N -1,9 C 4,0 C 16,1 km/h
24.01.2021 16:00 4,1 C 62 % 999,9 hPa 0,0 l/m 1,1 km/h N -2,5 C 4,1 C 10,5 km/h
24.01.2021 17:00 3,7 C 59 % 1000,0 hPa 0,0 l/m 2,0 km/h N -3,5 C 3,7 C 16,5 km/h
24.01.2021 18:00 3,3 C 58 % 1000,5 hPa 0,0 l/m 3,6 km/h N -4,2 C 3,3 C 17,3 km/h
24.01.2021 19:00 3,1 C 56 % 1000,5 hPa 0,0 l/m 5,0 km/h N -4,7 C 2,4 C 17,3 km/h
24.01.2021 20:00 3,4 C 55 % 1000,1 hPa 0,0 l/m 10,7 km/h N -4,9 C -0,1 C 26,9 km/h
24.01.2021 21:00 3,0 C 57 % 999,8 hPa 0,0 l/m 11,2 km/h N -4,6 C -0,9 C 28,2 km/h
24.01.2021 22:00 2,7 C 61 % 999,5 hPa 0,0 l/m 10,1 km/h N -4,2 C -0,6 C 31,8 km/h
24.01.2021 23:00 2,4 C 64 % 999,7 hPa 0,0 l/m 7,1 km/h N -3,7 C 1,8 C 23,3 km/h
Min-Datum _ 21.01.21 19.01.21 23.01.21 - 18.01.21 - 18.01.21 21.01.21 18.01.21
_ Min-Zeit 08:15 13:45 06:15 - 02:15 - 01:00 08:15 02:45
Minimum _ -3,8 C 54 % 992,9 hPa - 0,0 km/h - -8,6 C -3,8 C 0,0 km/h
Max-Datum _ 22.01.21 21.01.21 18.01.21 20.01.21 24.01.21 - 22.01.21 22.01.21 24.01.21
_ Max-Zeit 15:15 03:30 02:15 02:00 21:00 - 13:45 15:00 22:15
Maximum _ 14,8 C 89 % 1023,0 hPa 1,0 l/m 13,6 km/h
N
- 7,7 C 14,7 C 40,2 km/h
N
Durchschnitt _ 3,2 C 75 % 1007,6 hPa #5,5 l/m 1,7 km/h N -0,9 C 2,9 C 7,2 km/h